Time;durP1;ratioP1;P1;durP2;ratioP2;P2;SDS_P1;SDS_P2;PMS_P1;PMS_P2;Temp;Humidity;BMP_temperature;BMP_pressure;BME280_temperature;BME280_humidity;BME280_pressure;Samples;Min_cycle;Max_cycle;Signal;HPM_P1;HPM_P2
2021/10/15 00:02:24;;;;;;;;;;;;;;;;;;4997865;28;19919;-81
2021/10/15 00:04:49;;;;;;;;;;;;;;;;;;5014296;28;19920;-81
2021/10/15 00:07:14;;;;;;;;;;;;;;;;;;5014909;28;19920;-81
2021/10/15 00:09:40;;;;;;;;;;;;;;;;;;5013331;28;19965;-81
2021/10/15 00:12:05;;;;;;;;;;;;;;;;;;4998572;28;19913;-81
2021/10/15 00:14:31;;;;;;;;;;;;;;;;;;5014206;28;20382;-80
2021/10/15 00:16:56;;;;;;;;;;;;;;;;;;5014019;28;19932;-81
2021/10/15 00:19:21;;;;;;;;;;;;;;;;;;5013840;28;19923;-81
2021/10/15 00:21:46;;;;;;;;;;;;;;;;;;5013957;28;20015;-81
2021/10/15 00:24:12;;;;;;;;;;;;;;;;;;5014832;28;19913;-81
2021/10/15 00:26:37;;;;;;;;;;;;;;;;;;4998085;28;19917;-81
2021/10/15 00:29:05;;;;;;;;;;;;;;;;;;5014259;28;20465;-80
2021/10/15 00:31:30;;;;;;;;;;;;;;;;;;4998242;28;19928;-80
2021/10/15 00:33:56;;;;;;;;;;;;;;;;;;5014324;28;20000;-82
2021/10/15 00:36:21;;;;;;;;;;;;;;;;;;5014383;28;20264;-82
2021/10/15 00:38:47;;;;;;;;;;;;;;;;;;4997919;28;19917;-82
2021/10/15 00:41:12;;;;;;;;;;;;;;;;;;5012980;28;19921;-81
2021/10/15 00:43:57;;;;;;;;;;;;;;;;;;5011940;28;19917;-82
2021/10/15 00:46:22;;;;;;;;;;;;;;;;;;5013754;28;20007;-81
2021/10/15 00:48:47;;;;;;;;;;;;;;;;;;4996670;28;19975;-82
2021/10/15 00:51:12;;;;;;;;;;;;;;;;;;5005588;28;19925;-81
2021/10/15 00:53:38;;;;;;;;;;;;;;;;;;5014436;28;20423;-82
2021/10/15 00:56:03;;;;;;;;;;;;;;;;;;5021709;28;19917;-81
2021/10/15 00:58:28;;;;;;;;;;;;;;;;;;5004435;28;19921;-81
2021/10/15 01:00:54;;;;;;;;;;;;;;;;;;4997076;28;19917;-81
2021/10/15 01:03:19;;;;;;;;;;;;;;;;;;4981771;28;19917;-82
2021/10/15 01:05:45;;;;;;;;;;;;;;;;;;4997626;28;19917;-82
2021/10/15 01:08:10;;;;;;;;;;;;;;;;;;4981502;28;20363;-82
2021/10/15 01:10:35;;;;;;;;;;;;;;;;;;4976578;28;19936;-81
2021/10/15 01:13:01;;;;;;;;;;;;;;;;;;5014240;28;19913;-82
2021/10/15 01:15:26;;;;;;;;;;;;;;;;;;4993899;28;19917;-81
2021/10/15 01:17:51;;;;;;;;;;;;;;;;;;4977870;28;19913;-81
2021/10/15 01:20:17;;;;;;;;;;;;;;;;;;4996716;28;19968;-81
2021/10/15 01:22:42;;;;;;;;;;;;;;;;;;5014218;28;19921;-81
2021/10/15 01:25:07;;;;;;;;;;;;;;;;;;5013854;28;19919;-81
2021/10/15 01:27:34;;;;;;;;;;;;;;;;;;4984177;28;19936;-81
2021/10/15 01:29:59;;;;;;;;;;;;;;;;;;5000658;28;19927;-81
2021/10/15 01:32:24;;;;;;;;;;;;;;;;;;5001485;28;20011;-81
2021/10/15 01:34:51;;;;;;;;;;;;;;;;;;5017747;28;19959;-81
2021/10/15 01:37:16;;;;;;;;;;;;;;;;;;5017821;28;19995;-81
2021/10/15 01:39:41;;;;;;;;;;;;;;;;;;5017216;28;20004;-82
2021/10/15 01:42:53;;;;;;;;;;;;;;;;;;5000717;28;20379;-82
2021/10/15 01:44:52;;;;;;;;;;;;;;;;;;5003093;28;20015;-82
2021/10/15 01:47:17;;;;;;;;;;;;;;;;;;5009022;28;19956;-82
2021/10/15 01:49:43;;;;;;;;;;;;;;;;;;4999053;28;19921;-82
2021/10/15 01:52:08;;;;;;;;;;;;;;;;;;5013866;28;19925;-81
2021/10/15 01:54:33;;;;;;;;;;;;;;;;;;5015284;28;19921;-82
2021/10/15 01:56:59;;;;;;;;;;;;;;;;;;4999558;28;19920;-81
2021/10/15 01:59:24;;;;;;;;;;;;;;;;;;5019730;28;19917;-81
2021/10/15 02:01:51;;;;;;;;;;;;;;;;;;5016574;28;19960;-81
2021/10/15 02:04:16;;;;;;;;;;;;;;;;;;5016889;28;19921;-81
2021/10/15 02:06:41;;;;;;;;;;;;;;;;;;5000897;28;19913;-81
2021/10/15 02:09:08;;;;;;;;;;;;;;;;;;5017053;28;19919;-81
2021/10/15 02:11:33;;;;;;;;;;;;;;;;;;5000515;28;19917;-82
2021/10/15 02:13:58;;;;;;;;;;;;;;;;;;5016492;28;20382;-82
2021/10/15 02:16:24;;;;;;;;;;;;;;;;;;5016625;28;19917;-82
2021/10/15 02:18:49;;;;;;;;;;;;;;;;;;4999997;28;19951;-81
2021/10/15 02:21:14;;;;;;;;;;;;;;;;;;5016504;28;20319;-81
2021/10/15 02:23:40;;;;;;;;;;;;;;;;;;4999883;28;19921;-82
2021/10/15 02:26:05;;;;;;;;;;;;;;;;;;4999825;28;19952;-82
2021/10/15 02:28:30;;;;;;;;;;;;;;;;;;4996053;28;20299;-81
2021/10/15 02:30:56;;;;;;;;;;;;;;;;;;4980633;28;19982;-81
2021/10/15 02:33:21;;;;;;;;;;;;;;;;;;5004752;28;19924;-81
2021/10/15 02:35:46;;;;;;;;;;;;;;;;;;5015630;28;19924;-81
2021/10/15 02:38:11;;;;;;;;;;;;;;;;;;4998876;28;19920;-80
2021/10/15 02:40:38;;;;;;;;;;;;;;;;;;4999313;28;20006;-81
2021/10/15 02:43:03;;;;;;;;;;;;;;;;;;5013034;28;20390;-81
2021/10/15 02:45:29;;;;;;;;;;;;;;;;;;5012668;28;19922;-81
2021/10/15 02:47:54;;;;;;;;;;;;;;;;;;5014983;28;19960;-81
2021/10/15 02:50:19;;;;;;;;;;;;;;;;;;5015670;28;19925;-81
2021/10/15 02:52:45;;;;;;;;;;;;;;;;;;4999705;28;19986;-81
2021/10/15 02:55:10;;;;;;;;;;;;;;;;;;4999239;28;19917;-81
2021/10/15 02:57:36;;;;;;;;;;;;;;;;;;4999470;28;20015;-81
2021/10/15 03:00:03;;;;;;;;;;;;;;;;;;5016084;28;19917;-82
2021/10/15 03:02:28;;;;;;;;;;;;;;;;;;4999350;28;19952;-81
2021/10/15 03:04:53;;;;;;;;;;;;;;;;;;5015817;28;20366;-81
2021/10/15 03:07:18;;;;;;;;;;;;;;;;;;4999576;28;19917;-81
2021/10/15 03:09:48;;;;;;;;;;;;;;;;;;5010683;28;19920;-81
2021/10/15 03:12:13;;;;;;;;;;;;;;;;;;4996244;28;19918;-81
2021/10/15 03:14:38;;;;;;;;;;;;;;;;;;5012833;28;19921;-81
2021/10/15 03:17:04;;;;;;;;;;;;;;;;;;5015764;28;19921;-81
2021/10/15 03:19:29;;;;;;;;;;;;;;;;;;5014001;28;19944;-81
2021/10/15 03:21:55;;;;;;;;;;;;;;;;;;5015020;28;19993;-81
2021/10/15 03:24:20;;;;;;;;;;;;;;;;;;5014546;28;19956;-81
2021/10/15 03:26:45;;;;;;;;;;;;;;;;;;5015854;28;19913;-81
2021/10/15 03:29:11;;;;;;;;;;;;;;;;;;4998852;28;19919;-81
2021/10/15 03:31:36;;;;;;;;;;;;;;;;;;4999001;28;19964;-81
2021/10/15 03:34:01;;;;;;;;;;;;;;;;;;4998787;28;19924;-80
2021/10/15 03:36:27;;;;;;;;;;;;;;;;;;4998483;28;19926;-81
2021/10/15 03:38:52;;;;;;;;;;;;;;;;;;4994740;28;20380;-80
2021/10/15 03:41:17;;;;;;;;;;;;;;;;;;5013121;28;19971;-81
2021/10/15 03:43:43;;;;;;;;;;;;;;;;;;5014984;28;19925;-80
2021/10/15 03:46:08;;;;;;;;;;;;;;;;;;5014537;28;19921;-80
2021/10/15 03:48:33;;;;;;;;;;;;;;;;;;4998355;28;19921;-81
2021/10/15 03:50:58;;;;;;;;;;;;;;;;;;4997721;28;19971;-81
2021/10/15 03:53:24;;;;;;;;;;;;;;;;;;5014539;28;20004;-80
2021/10/15 03:55:49;;;;;;;;;;;;;;;;;;5020792;28;20011;-80
2021/10/15 03:58:14;;;;;;;;;;;;;;;;;;5027755;28;19917;-80
2021/10/15 04:00:40;;;;;;;;;;;;;;;;;;5014681;28;20029;-81
2021/10/15 04:03:06;;;;;;;;;;;;;;;;;;5014457;28;19924;-80
2021/10/15 04:05:31;;;;;;;;;;;;;;;;;;4999016;28;19913;-81
2021/10/15 04:07:56;;;;;;;;;;;;;;;;;;5013329;28;20352;-81
2021/10/15 04:10:21;;;;;;;;;;;;;;;;;;4997637;28;19928;-81
2021/10/15 04:12:47;;;;;;;;;;;;;;;;;;5014521;28;20405;-81
2021/10/15 04:15:12;;;;;;;;;;;;;;;;;;5014963;28;19963;-81
2021/10/15 04:17:38;;;;;;;;;;;;;;;;;;5014321;28;19959;-81
2021/10/15 04:20:05;;;;;;;;;;;;;;;;;;4997879;28;20473;-81
2021/10/15 04:22:30;;;;;;;;;;;;;;;;;;4998137;28;19956;-81
2021/10/15 04:24:55;;;;;;;;;;;;;;;;;;4997651;28;19917;-81
2021/10/15 04:27:21;;;;;;;;;;;;;;;;;;5014798;28;19960;-81
2021/10/15 04:29:46;;;;;;;;;;;;;;;;;;5014395;28;20270;-81
2021/10/15 04:32:11;;;;;;;;;;;;;;;;;;5014538;28;19944;-80
2021/10/15 04:34:37;;;;;;;;;;;;;;;;;;4993165;28;19918;-81
2021/10/15 04:37:02;;;;;;;;;;;;;;;;;;4994632;28;19964;-81
2021/10/15 04:39:27;;;;;;;;;;;;;;;;;;5012586;28;19917;-81
2021/10/15 04:41:53;;;;;;;;;;;;;;;;;;4981188;28;19921;-82
2021/10/15 04:44:18;;;;;;;;;;;;;;;;;;5014630;28;19927;-81
2021/10/15 04:46:43;;;;;;;;;;;;;;;;;;5014462;28;19924;-81
2021/10/15 04:49:09;;;;;;;;;;;;;;;;;;4996718;28;20065;-81
2021/10/15 04:51:34;;;;;;;;;;;;;;;;;;4997207;28;20016;-81
2021/10/15 04:53:59;;;;;;;;;;;;;;;;;;5014132;28;19917;-80
2021/10/15 04:56:25;;;;;;;;;;;;;;;;;;5024764;28;19909;-81
2021/10/15 04:58:50;;;;;;;;;;;;;;;;;;5022032;28;19924;-81
2021/10/15 05:01:15;;;;;;;;;;;;;;;;;;5013197;28;19971;-81
2021/10/15 05:03:41;;;;;;;;;;;;;;;;;;4985382;28;19913;-81
2021/10/15 05:06:06;;;;;;;;;;;;;;;;;;5001504;28;19917;-81
2021/10/15 05:08:38;;;;;;;;;;;;;;;;;;5018251;28;19951;-81
2021/10/15 05:11:03;;;;;;;;;;;;;;;;;;5001659;28;20380;-81
2021/10/15 05:13:29;;;;;;;;;;;;;;;;;;5017943;28;19960;-81
2021/10/15 05:15:54;;;;;;;;;;;;;;;;;;5000343;28;19917;-82
2021/10/15 05:18:20;;;;;;;;;;;;;;;;;;4984427;28;19917;-82
2021/10/15 05:20:45;;;;;;;;;;;;;;;;;;5000282;28;19921;-82
2021/10/15 05:23:11;;;;;;;;;;;;;;;;;;5001624;28;20268;-80
2021/10/15 05:25:37;;;;;;;;;;;;;;;;;;4997481;28;19980;-81
2021/10/15 05:28:02;;;;;;;;;;;;;;;;;;5003512;28;19917;-81
2021/10/15 05:30:28;;;;;;;;;;;;;;;;;;4982552;28;19913;-81
2021/10/15 05:32:53;;;;;;;;;;;;;;;;;;5017801;28;19917;-81
2021/10/15 05:35:18;;;;;;;;;;;;;;;;;;5000759;28;20290;-81
2021/10/15 05:37:44;;;;;;;;;;;;;;;;;;5000582;28;20355;-81
2021/10/15 05:40:09;;;;;;;;;;;;;;;;;;5017052;28;19943;-81
2021/10/15 05:42:35;;;;;;;;;;;;;;;;;;5014342;28;19917;-80
2021/10/15 05:45:00;;;;;;;;;;;;;;;;;;5017228;28;20011;-81
2021/10/15 05:47:25;;;;;;;;;;;;;;;;;;5000730;28;19913;-81
2021/10/15 05:49:52;;;;;;;;;;;;;;;;;;5000457;28;19921;-81
2021/10/15 05:52:34;;;;;;;;;;;;;;;;;;5000679;28;19921;-80
2021/10/15 05:59:59;;;;;;;;;;;;;;;;;;5014173;28;20012;-80
2021/10/15 06:02:31;;;;;;;;;;;;;;;;;;4999949;28;19924;-78
2021/10/15 06:16:16;;;;;;;;;;;;;;;;;;4925497;29;19914;-80
2021/10/15 06:18:51;;;;;;;;;;;;;;;;;;5005015;28;19928;-80
2021/10/15 06:21:16;;;;;;;;;;;;;;;;;;5001217;28;20287;-80
2021/10/15 06:23:41;;;;;;;;;;;;;;;;;;4999030;28;19920;-79
2021/10/15 06:26:07;;;;;;;;;;;;;;;;;;4998354;28;19952;-80
2021/10/15 06:28:32;;;;;;;;;;;;;;;;;;5016355;28;19952;-80
2021/10/15 06:30:57;;;;;;;;;;;;;;;;;;5015920;28;19935;-80
2021/10/15 06:33:23;;;;;;;;;;;;;;;;;;5016358;28;20405;-80
2021/10/15 06:35:48;;;;;;;;;;;;;;;;;;5012189;28;19970;-79
2021/10/15 06:38:13;;;;;;;;;;;;;;;;;;5016208;28;19966;-80
2021/10/15 06:40:39;;;;;;;;;;;;;;;;;;5016618;28;20015;-80
2021/10/15 06:43:05;;;;;;;;;;;;;;;;;;5015483;28;19921;-80
2021/10/15 06:45:31;;;;;;;;;;;;;;;;;;4984010;28;19913;-80
2021/10/15 06:47:56;;;;;;;;;;;;;;;;;;5011887;28;19924;-80
2021/10/15 06:50:22;;;;;;;;;;;;;;;;;;4996717;28;20033;-79
2021/10/15 06:52:47;;;;;;;;;;;;;;;;;;4996408;28;19920;-80
2021/10/15 06:55:16;;;;;;;;;;;;;;;;;;4997112;28;19920;-79
2021/10/15 06:57:41;;;;;;;;;;;;;;;;;;4982990;28;19952;-80
2021/10/15 07:00:07;;;;;;;;;;;;;;;;;;4999713;28;19964;-80
2021/10/15 07:02:32;;;;;;;;;;;;;;;;;;5014580;28;19924;-79
2021/10/15 07:04:58;;;;;;;;;;;;;;;;;;4998691;28;20296;-79
2021/10/15 07:07:24;;;;;;;;;;;;;;;;;;5016290;28;19991;-79
2021/10/15 07:09:49;;;;;;;;;;;;;;;;;;5015119;28;19921;-79
2021/10/15 07:12:14;;;;;;;;;;;;;;;;;;4998624;28;20383;-79
2021/10/15 07:14:40;;;;;;;;;;;;;;;;;;5014234;28;19925;-80
2021/10/15 07:17:05;;;;;;;;;;;;;;;;;;5014847;28;20007;-79
2021/10/15 07:19:30;;;;;;;;;;;;;;;;;;5014070;28;19917;-79
2021/10/15 07:21:56;;;;;;;;;;;;;;;;;;5015351;28;19924;-79
2021/10/15 07:24:21;;;;;;;;;;;;;;;;;;5013514;28;19970;-80
2021/10/15 07:26:46;;;;;;;;;;;;;;;;;;4994787;28;19921;-79
2021/10/15 07:29:12;;;;;;;;;;;;;;;;;;4992494;28;19937;-80
2021/10/15 07:31:37;;;;;;;;;;;;;;;;;;4998049;28;19921;-79
2021/10/15 07:34:05;;;;;;;;;;;;;;;;;;5014423;28;20390;-80
2021/10/15 07:36:30;;;;;;;;;;;;;;;;;;5015598;28;19924;-80
2021/10/15 07:38:55;;;;;;;;;;;;;;;;;;5014490;28;19921;-80
2021/10/15 07:41:21;;;;;;;;;;;;;;;;;;4998516;28;19956;-79
2021/10/15 07:43:50;;;;;;;;;;;;;;;;;;5013236;28;19913;-79
2021/10/15 07:46:15;;;;;;;;;;;;;;;;;;4998406;28;20379;-79
2021/10/15 07:48:40;;;;;;;;;;;;;;;;;;5014245;28;20014;-79
2021/10/15 07:51:07;;;;;;;;;;;;;;;;;;4997995;28;19921;-79
2021/10/15 07:53:33;;;;;;;;;;;;;;;;;;4998800;28;19991;-79
2021/10/15 07:55:58;;;;;;;;;;;;;;;;;;4998446;28;20017;-79
2021/10/15 07:58:23;;;;;;;;;;;;;;;;;;5014903;28;19979;-79
2021/10/15 08:00:48;;;;;;;;;;;;;;;;;;5014217;28;20391;-80
2021/10/15 08:03:14;;;;;;;;;;;;;;;;;;5015003;28;19921;-79
2021/10/15 08:05:39;;;;;;;;;;;;;;;;;;5014260;28;20098;-79
2021/10/15 08:08:04;;;;;;;;;;;;;;;;;;5011027;28;19913;-79
2021/10/15 08:10:30;;;;;;;;;;;;;;;;;;5011254;28;19943;-79
2021/10/15 08:12:56;;;;;;;;;;;;;;;;;;5011573;28;19971;-80
2021/10/15 08:15:21;;;;;;;;;;;;;;;;;;4998196;28;19971;-78
2021/10/15 08:17:47;;;;;;;;;;;;;;;;;;5015654;28;20379;-82
2021/10/15 08:20:12;;;;;;;;;;;;;;;;;;5015231;28;19917;-82
2021/10/15 08:22:38;;;;;;;;;;;;;;;;;;4999148;28;19956;-81
2021/10/15 08:25:04;;;;;;;;;;;;;;;;;;4997836;28;19921;-81
2021/10/15 08:27:29;;;;;;;;;;;;;;;;;;5015030;28;19917;-83
2021/10/15 08:29:54;;;;;;;;;;;;;;;;;;5014064;28;19913;-81
2021/10/15 08:32:20;;;;;;;;;;;;;;;;;;5010329;28;19921;-81
2021/10/15 08:34:45;;;;;;;;;;;;;;;;;;5014178;28;19918;-80
2021/10/15 08:37:10;;;;;;;;;;;;;;;;;;5013246;28;19917;-82
2021/10/15 08:39:36;;;;;;;;;;;;;;;;;;4998451;28;20360;-81
2021/10/15 08:42:01;;;;;;;;;;;;;;;;;;4996133;28;19999;-81
2021/10/15 08:44:33;;;;;;;;;;;;;;;;;;5013784;28;19967;-82
2021/10/15 08:46:59;;;;;;;;;;;;;;;;;;5003810;28;19917;-80
2021/10/15 08:49:24;;;;;;;;;;;;;;;;;;4997196;28;20420;-81
2021/10/15 08:51:50;;;;;;;;;;;;;;;;;;4997892;28;19925;-81
2021/10/15 08:54:15;;;;;;;;;;;;;;;;;;5010787;28;19965;-80
2021/10/15 08:56:42;;;;;;;;;;;;;;;;;;5025499;28;19987;-80
2021/10/15 08:59:09;;;;;;;;;;;;;;;;;;5013753;28;20004;-79
2021/10/15 09:01:45;;;;;;;;;;;;;;;;;;5012413;28;19925;-82
2021/10/15 09:04:11;;;;;;;;;;;;;;;;;;4994751;28;19925;-82
2021/10/15 09:06:37;;;;;;;;;;;;;;;;;;4994777;28;19914;-82
2021/10/15 09:09:03;;;;;;;;;;;;;;;;;;4994308;28;19921;-84
2021/10/15 09:11:28;;;;;;;;;;;;;;;;;;5007176;28;19924;-81
2021/10/15 09:14:04;;;;;;;;;;;;;;;;;;4997519;28;19924;-83
2021/10/15 09:16:29;;;;;;;;;;;;;;;;;;4981131;28;19917;-82
2021/10/15 09:18:54;;;;;;;;;;;;;;;;;;4996744;28;19970;-81
2021/10/15 09:21:20;;;;;;;;;;;;;;;;;;5013745;28;19925;-82
2021/10/15 09:23:48;;;;;;;;;;;;;;;;;;4997535;28;19955;-83
2021/10/15 09:26:14;;;;;;;;;;;;;;;;;;5012892;28;19921;-82
2021/10/15 09:28:44;;;;;;;;;;;;;;;;;;4983017;28;19924;-82
2021/10/15 09:31:10;;;;;;;;;;;;;;;;;;5013765;28;19921;-82
2021/10/15 09:33:35;;;;;;;;;;;;;;;;;;4996876;28;19928;-82
2021/10/15 09:36:07;;;;;;;;;;;;;;;;;;4993623;28;19917;-83
2021/10/15 09:38:32;;;;;;;;;;;;;;;;;;4979298;28;19917;-83
2021/10/15 09:40:57;;;;;;;;;;;;;;;;;;5002947;28;19917;-83
2021/10/15 09:43:31;;;;;;;;;;;;;;;;;;5017000;28;19913;-83
2021/10/15 09:45:57;;;;;;;;;;;;;;;;;;5000980;28;19913;-83
2021/10/15 09:48:36;;;;;;;;;;;;;;;;;;5015897;28;19924;-83
2021/10/15 09:51:15;;;;;;;;;;;;;;;;;;5002287;28;20383;-83
2021/10/15 09:53:41;;;;;;;;;;;;;;;;;;5001117;28;19913;-83
2021/10/15 09:56:06;;;;;;;;;;;;;;;;;;5003209;28;19919;-84
2021/10/15 09:58:32;;;;;;;;;;;;;;;;;;5037390;28;19917;-84
2021/10/15 10:00:57;;;;;;;;;;;;;;;;;;5020642;28;19920;-84
2021/10/15 10:03:23;;;;;;;;;;;;;;;;;;5021109;28;19920;-84
2021/10/15 10:05:49;;;;;;;;;;;;;;;;;;4990698;28;19917;-84
2021/10/15 10:08:15;;;;;;;;;;;;;;;;;;5021911;28;19952;-83
2021/10/15 10:10:41;;;;;;;;;;;;;;;;;;5016358;28;19975;-84
2021/10/15 10:13:06;;;;;;;;;;;;;;;;;;5000911;28;19913;-84
2021/10/15 10:15:33;;;;;;;;;;;;;;;;;;5000693;28;19913;-85
2021/10/15 10:18:04;;;;;;;;;;;;;;;;;;5014298;28;19924;-84
2021/10/15 10:20:30;;;;;;;;;;;;;;;;;;4999858;28;19984;-84
2021/10/15 10:23:06;;;;;;;;;;;;;;;;;;4999647;28;20319;-85
2021/10/15 10:25:32;;;;;;;;;;;;;;;;;;4999428;28;19917;-86
2021/10/15 10:28:10;;;;;;;;;;;;;;;;;;4984608;28;19913;-85
2021/10/15 10:30:37;;;;;;;;;;;;;;;;;;4984528;28;19913;-85
2021/10/15 10:33:02;;;;;;;;;;;;;;;;;;5000493;28;20012;-84
2021/10/15 10:35:29;;;;;;;;;;;;;;;;;;4984454;28;20000;-84
2021/10/15 10:38:13;;;;;;;;;;;;;;;;;;5000589;28;19917;-84
2021/10/15 10:40:59;;;;;;;;;;;;;;;;;;5033001;28;19928;-86
2021/10/15 10:43:25;;;;;;;;;;;;;;;;;;5000181;28;19917;-84
2021/10/15 10:46:09;;;;;;;;;;;;;;;;;;5000007;28;20016;-85
2021/10/15 10:48:46;;;;;;;;;;;;;;;;;;4999740;28;19925;-84
2021/10/15 10:51:13;;;;;;;;;;;;;;;;;;5000056;28;20693;-84
2021/10/15 10:53:57;;;;;;;;;;;;;;;;;;5000102;28;20310;-86
2021/10/15 10:56:38;;;;;;;;;;;;;;;;;;5000296;28;20394;-84
2021/10/15 10:59:25;;;;;;;;;;;;;;;;;;5015469;28;19921;-84
2021/10/15 11:02:14;;;;;;;;;;;;;;;;;;4992793;28;19964;-83
2021/10/15 11:04:42;;;;;;;;;;;;;;;;;;5016911;28;19925;-84
2021/10/15 11:07:08;;;;;;;;;;;;;;;;;;4999935;28;19913;-84
2021/10/15 11:09:52;;;;;;;;;;;;;;;;;;5017232;28;19920;-89
2021/10/15 11:12:27;;;;;;;;;;;;;;;;;;5000408;28;19914;-84
2021/10/15 11:14:59;;;;;;;;;;;;;;;;;;5016023;28;19963;-84
2021/10/15 11:17:25;;;;;;;;;;;;;;;;;;5009060;28;19933;-83
2021/10/15 11:20:10;;;;;;;;;;;;;;;;;;4963837;28;19973;-85
2021/10/15 11:22:37;;;;;;;;;;;;;;;;;;4995936;28;19917;-85
2021/10/15 11:25:04;;;;;;;;;;;;;;;;;;4979892;28;19914;-84
2021/10/15 11:27:30;;;;;;;;;;;;;;;;;;4963548;28;19921;-84
2021/10/15 11:29:58;;;;;;;;;;;;;;;;;;4979722;28;19937;-84
2021/10/15 11:32:39;;;;;;;;;;;;;;;;;;4979940;28;19914;-84
2021/10/15 11:35:15;;;;;;;;;;;;;;;;;;4963713;28;20399;-84
2021/10/15 11:37:40;;;;;;;;;;;;;;;;;;4963413;28;20025;-85
2021/10/15 11:40:12;;;;;;;;;;;;;;;;;;4995761;28;20381;-84
2021/10/15 11:42:38;;;;;;;;;;;;;;;;;;5010513;28;19917;-85
2021/10/15 11:45:19;;;;;;;;;;;;;;;;;;5011933;28;19914;-85
2021/10/15 11:47:54;;;;;;;;;;;;;;;;;;4979278;28;19917;-85
2021/10/15 11:50:39;;;;;;;;;;;;;;;;;;4990820;28;19932;-84
2021/10/15 11:53:05;;;;;;;;;;;;;;;;;;5018659;28;19917;-85
2021/10/15 11:55:31;;;;;;;;;;;;;;;;;;5009412;28;19996;-85
2021/10/15 11:58:15;;;;;;;;;;;;;;;;;;5005245;28;19929;-84
2021/10/15 12:01:00;;;;;;;;;;;;;;;;;;5013433;28;20377;-85
2021/10/15 12:03:29;;;;;;;;;;;;;;;;;;5015222;28;20012;-84
2021/10/15 12:05:55;;;;;;;;;;;;;;;;;;4998805;28;19968;-84
2021/10/15 12:08:21;;;;;;;;;;;;;;;;;;4997035;28;19968;-85
2021/10/15 12:10:46;;;;;;;;;;;;;;;;;;4978366;28;19941;-86
2021/10/15 12:13:11;;;;;;;;;;;;;;;;;;4979329;28;19913;-85
2021/10/15 12:15:37;;;;;;;;;;;;;;;;;;4998211;28;19913;-85
2021/10/15 12:18:06;;;;;;;;;;;;;;;;;;4981933;28;20012;-85
2021/10/15 12:20:31;;;;;;;;;;;;;;;;;;4981838;28;19975;-85
2021/10/15 12:22:56;;;;;;;;;;;;;;;;;;4998231;28;20323;-85
2021/10/15 12:25:25;;;;;;;;;;;;;;;;;;4997529;28;19917;-84
2021/10/15 12:27:51;;;;;;;;;;;;;;;;;;4997054;28;20098;-84
2021/10/15 12:30:19;;;;;;;;;;;;;;;;;;4980090;28;19917;-85
2021/10/15 12:32:44;;;;;;;;;;;;;;;;;;5014392;28;19913;-85
2021/10/15 12:35:24;;;;;;;;;;;;;;;;;;4997679;28;19932;-85
2021/10/15 12:37:49;;;;;;;;;;;;;;;;;;4976494;28;19917;-85
2021/10/15 12:40:15;;;;;;;;;;;;;;;;;;4987958;28;19917;-85
2021/10/15 12:42:41;;;;;;;;;;;;;;;;;;4997664;28;20071;-85
2021/10/15 12:45:08;;;;;;;;;;;;;;;;;;4997897;28;19913;-85
2021/10/15 12:47:36;;;;;;;;;;;;;;;;;;4997174;28;20383;-85
2021/10/15 12:50:01;;;;;;;;;;;;;;;;;;5013988;28;19928;-85
2021/10/15 12:52:37;;;;;;;;;;;;;;;;;;5014969;28;19921;-84
2021/10/15 12:55:12;;;;;;;;;;;;;;;;;;5014603;28;19923;-85
2021/10/15 12:57:37;;;;;;;;;;;;;;;;;;4983045;28;19925;-84
2021/10/15 13:00:03;;;;;;;;;;;;;;;;;;4993968;28;19917;-85
2021/10/15 13:02:29;;;;;;;;;;;;;;;;;;5012295;28;19917;-85
2021/10/15 13:04:58;;;;;;;;;;;;;;;;;;4997332;28;19927;-85
2021/10/15 13:07:25;;;;;;;;;;;;;;;;;;4998035;28;20318;-85
2021/10/15 13:09:50;;;;;;;;;;;;;;;;;;4994073;28;19949;-85
2021/10/15 13:12:15;;;;;;;;;;;;;;;;;;4996106;28;19921;-85
2021/10/15 13:14:41;;;;;;;;;;;;;;;;;;4981535;28;19928;-84
2021/10/15 13:17:07;;;;;;;;;;;;;;;;;;4997599;28;19920;-85
2021/10/15 13:19:34;;;;;;;;;;;;;;;;;;4980934;28;20004;-84
2021/10/15 13:21:59;;;;;;;;;;;;;;;;;;4997004;28;19925;-84
2021/10/15 13:24:25;;;;;;;;;;;;;;;;;;5018087;28;19939;-84
2021/10/15 13:26:51;;;;;;;;;;;;;;;;;;5018028;28;20011;-84
2021/10/15 13:29:17;;;;;;;;;;;;;;;;;;5001281;28;20448;-85
2021/10/15 13:31:42;;;;;;;;;;;;;;;;;;5001426;28;19917;-85
2021/10/15 13:34:08;;;;;;;;;;;;;;;;;;5001494;28;19924;-84
2021/10/15 13:36:36;;;;;;;;;;;;;;;;;;5000832;28;19913;-85
2021/10/15 13:39:05;;;;;;;;;;;;;;;;;;5001488;28;19917;-85
2021/10/15 13:52:14;;;;;;;;;;;;;;;;;;5016587;28;19925;-84
2021/10/15 13:54:40;;;;;;;;;;;;;;;;;;4999730;28;19972;-84
2021/10/15 13:57:08;;;;;;;;;;;;;;;;;;5017098;28;19947;-84
2021/10/15 13:59:39;;;;;;;;;;;;;;;;;;5013231;28;19921;-84
2021/10/15 14:02:08;;;;;;;;;;;;;;;;;;4996950;28;19926;-85
2021/10/15 14:04:38;;;;;;;;;;;;;;;;;;5014488;28;19913;-85
2021/10/15 14:07:05;;;;;;;;;;;;;;;;;;5000288;28;19924;-86
2021/10/15 14:09:30;;;;;;;;;;;;;;;;;;5000750;28;19928;-84
2021/10/15 14:11:55;;;;;;;;;;;;;;;;;;4997312;28;19914;-85
2021/10/15 14:14:21;;;;;;;;;;;;;;;;;;4981085;28;19921;-83
2021/10/15 14:16:47;;;;;;;;;;;;;;;;;;5012207;28;19959;-83
2021/10/15 14:19:12;;;;;;;;;;;;;;;;;;5000457;28;19917;-84
2021/10/15 14:21:40;;;;;;;;;;;;;;;;;;5000576;28;19963;-84
2021/10/15 14:24:06;;;;;;;;;;;;;;;;;;5000547;28;19918;-82
2021/10/15 14:26:31;;;;;;;;;;;;;;;;;;5000218;28;20100;-83
2021/10/15 14:28:56;;;;;;;;;;;;;;;;;;5000318;28;19999;-83
2021/10/15 14:31:22;;;;;;;;;;;;;;;;;;4999987;28;19913;-84
2021/10/15 14:33:47;;;;;;;;;;;;;;;;;;5016478;28;19913;-83
2021/10/15 14:36:12;;;;;;;;;;;;;;;;;;5000055;28;19970;-83
2021/10/15 14:38:38;;;;;;;;;;;;;;;;;;5000021;28;19960;-84
2021/10/15 14:41:04;;;;;;;;;;;;;;;;;;4996850;28;20390;-84
2021/10/15 14:43:29;;;;;;;;;;;;;;;;;;4964582;28;19913;-84
2021/10/15 14:45:55;;;;;;;;;;;;;;;;;;4981148;28;19928;-84
2021/10/15 14:48:20;;;;;;;;;;;;;;;;;;5014978;28;19917;-84
2021/10/15 14:50:45;;;;;;;;;;;;;;;;;;4982318;28;20639;-85
2021/10/15 14:53:12;;;;;;;;;;;;;;;;;;5011621;28;20295;-84
2021/10/15 14:55:37;;;;;;;;;;;;;;;;;;4998542;28;20003;-84
2021/10/15 14:58:05;;;;;;;;;;;;;;;;;;5019050;28;20003;-84
2021/10/15 15:00:30;;;;;;;;;;;;;;;;;;5004887;28;19917;-85
2021/10/15 15:02:56;;;;;;;;;;;;;;;;;;4980179;28;19925;-84
2021/10/15 15:05:22;;;;;;;;;;;;;;;;;;4999285;28;20395;-85
2021/10/15 15:07:48;;;;;;;;;;;;;;;;;;4995917;28;19913;-85
2021/10/15 15:10:14;;;;;;;;;;;;;;;;;;5009820;28;19917;-85
2021/10/15 15:12:39;;;;;;;;;;;;;;;;;;4994811;28;19922;-85
2021/10/15 15:15:05;;;;;;;;;;;;;;;;;;4979611;28;19917;-85
2021/10/15 15:17:31;;;;;;;;;;;;;;;;;;5007205;28;19963;-84
2021/10/15 15:19:56;;;;;;;;;;;;;;;;;;4997522;28;20294;-83
2021/10/15 15:22:22;;;;;;;;;;;;;;;;;;4996099;28;19921;-83
2021/10/15 15:24:50;;;;;;;;;;;;;;;;;;4996786;28;19924;-84
2021/10/15 15:27:19;;;;;;;;;;;;;;;;;;4999381;28;19979;-86
2021/10/15 15:29:46;;;;;;;;;;;;;;;;;;4996414;28;19917;-85
2021/10/15 15:32:13;;;;;;;;;;;;;;;;;;5011642;28;20389;-87
2021/10/15 15:34:39;;;;;;;;;;;;;;;;;;4997518;28;19939;-86
2021/10/15 15:37:04;;;;;;;;;;;;;;;;;;4998459;28;19995;-87
2021/10/15 15:39:31;;;;;;;;;;;;;;;;;;4997768;28;19921;-86
2021/10/15 15:41:58;;;;;;;;;;;;;;;;;;5012931;28;19956;-86
2021/10/15 15:44:30;;;;;;;;;;;;;;;;;;4970921;28;19918;-86
2021/10/15 15:47:00;;;;;;;;;;;;;;;;;;4996887;28;19921;-87
2021/10/15 15:49:29;;;;;;;;;;;;;;;;;;5004361;28;19948;-86
2021/10/15 15:51:57;;;;;;;;;;;;;;;;;;4981617;28;19932;-86
2021/10/15 15:54:22;;;;;;;;;;;;;;;;;;5013103;28;19929;-86
2021/10/15 15:56:49;;;;;;;;;;;;;;;;;;4998123;28;19925;-86
2021/10/15 15:59:15;;;;;;;;;;;;;;;;;;5014604;28;19917;-86
2021/10/15 16:01:44;;;;;;;;;;;;;;;;;;4998722;28;20324;-87
2021/10/15 16:04:11;;;;;;;;;;;;;;;;;;5012861;28;19920;-86
2021/10/15 16:06:36;;;;;;;;;;;;;;;;;;4999061;28;19917;-87
2021/10/15 16:09:02;;;;;;;;;;;;;;;;;;4998833;28;19920;-87
2021/10/15 16:11:27;;;;;;;;;;;;;;;;;;4982874;28;19913;-87
2021/10/15 16:13:53;;;;;;;;;;;;;;;;;;4998824;28;19913;-86
2021/10/15 16:16:20;;;;;;;;;;;;;;;;;;4998464;28;19917;-86
2021/10/15 16:18:46;;;;;;;;;;;;;;;;;;5014991;28;19928;-86
2021/10/15 16:21:12;;;;;;;;;;;;;;;;;;4998461;28;19968;-87
2021/10/15 16:23:38;;;;;;;;;;;;;;;;;;4990064;28;19952;-86
2021/10/15 16:26:04;;;;;;;;;;;;;;;;;;4979626;28;20383;-88
2021/10/15 16:28:31;;;;;;;;;;;;;;;;;;4979686;28;19918;-84
2021/10/15 16:30:56;;;;;;;;;;;;;;;;;;4979584;28;19913;-87
2021/10/15 16:33:22;;;;;;;;;;;;;;;;;;4996162;28;19967;-88
2021/10/15 16:35:48;;;;;;;;;;;;;;;;;;4999583;28;19913;-88
2021/10/15 16:38:14;;;;;;;;;;;;;;;;;;5005346;28;19918;-88
2021/10/15 16:40:40;;;;;;;;;;;;;;;;;;4995902;28;19917;-84
2021/10/15 16:43:05;;;;;;;;;;;;;;;;;;4990834;28;19924;-86
2021/10/15 16:45:31;;;;;;;;;;;;;;;;;;4987792;28;19955;-87
2021/10/15 16:47:56;;;;;;;;;;;;;;;;;;4994969;28;19957;-86
2021/10/15 16:50:23;;;;;;;;;;;;;;;;;;4979021;28;19976;-87
2021/10/15 16:52:48;;;;;;;;;;;;;;;;;;5010961;28;20068;-86
2021/10/15 16:55:21;;;;;;;;;;;;;;;;;;4980500;28;20012;-86
2021/10/15 16:57:46;;;;;;;;;;;;;;;;;;5000214;28;19964;-86
2021/10/15 17:00:12;;;;;;;;;;;;;;;;;;4998694;28;19925;-85
2021/10/15 17:02:38;;;;;;;;;;;;;;;;;;4995032;28;20000;-85
2021/10/15 17:05:03;;;;;;;;;;;;;;;;;;4999728;28;19924;-86
2021/10/15 17:07:30;;;;;;;;;;;;;;;;;;5002068;28;19913;-85
2021/10/15 17:09:56;;;;;;;;;;;;;;;;;;5000944;28;19925;-85
2021/10/15 17:12:21;;;;;;;;;;;;;;;;;;5002831;28;19976;-85